Current Weather

De Kalb Taylor Muni

De Kalb, Illinois (KDKB)

Report from: Friday, August 19, 2022 12:15 AM CDT
Current time: Friday, August 19, 2022 1:02 AM CDT

Nearby weather
Weather history
Weather forecast

Temperature15.0°C (59.0°F)
Dew point14.5°C (58.1°F)
Winds 5 kts (2.6 m/s, 5.8 mph) South-Southwest (200°)
Visibility10 mi. (16.1 km)
Clouds Sky clear
Altimeter29.96 in.Hg (1015 mB)
Relative humidity97 %
Density altitude184 ft. (56 m)
Remarks Fully automated report
Automated weather observing station with precipitation discriminator
Flight conditions Visual Meteorological Conditions
Raw dataKDKB 190515Z AUTO 20005KT 10SM CLR 15/15 A2996 RMK AO2 T01500145
An unhandled exception has occurred. See browser dev tools for details. Reload 🗙